createdAt,value
2023-07-14T00:01:51.224Z,101524.66
2023-07-14T00:04:26.640Z,101519.03
2023-07-14T00:06:54.100Z,101518.88
2023-07-14T00:09:30.225Z,101516.63
2023-07-14T00:11:58.085Z,101517.94
2023-07-14T00:14:25.981Z,101523.69
2023-07-14T00:16:54.639Z,101520.81
2023-07-14T00:19:22.293Z,101514.41
2023-07-14T00:21:51.314Z,101518.38
2023-07-14T00:24:20.471Z,101509.72
2023-07-14T00:26:58.116Z,101509.28
2023-07-14T00:29:31.521Z,101509.63
2023-07-14T00:31:58.836Z,101513.09
2023-07-14T00:34:26.118Z,101511.84
2023-07-14T00:36:53.558Z,101502.38
2023-07-14T00:39:20.875Z,101499.34
2023-07-14T00:41:49.128Z,101504.78
2023-07-14T00:44:16.943Z,101502.06
2023-07-14T00:46:46.714Z,101515.06
2023-07-14T00:49:21.809Z,101508.47
2023-07-14T00:51:49.361Z,101511.84
2023-07-14T00:54:27.628Z,101506.88
2023-07-14T00:56:57.130Z,101505.28
2023-07-14T00:59:33.384Z,101501.31
2023-07-14T01:02:12.701Z,101502.56
2023-07-14T01:04:42.681Z,101511.19
2023-07-14T01:07:11.013Z,101505.59
2023-07-14T01:09:39.054Z,101494.41
2023-07-14T01:12:08.518Z,101496.13
2023-07-14T01:14:41.377Z,101493.41
2023-07-14T01:17:08.965Z,101492.31
2023-07-14T01:20:01.092Z,101506.41
2023-07-14T01:22:47.122Z,101503.84
2023-07-14T01:25:40.085Z,101507.00
2023-07-14T01:28:13.159Z,101501.13
2023-07-14T01:30:41.184Z,101496.81
2023-07-14T01:33:17.965Z,101492.00
2023-07-14T01:35:52.484Z,101498.06
2023-07-14T01:38:21.208Z,101494.69
2023-07-14T01:40:48.901Z,101496.88
2023-07-14T01:43:16.843Z,101499.47
2023-07-14T01:45:52.805Z,101490.97
2023-07-14T01:48:24.025Z,101489.53
2023-07-14T01:50:58.092Z,101487.28
2023-07-14T01:53:31.219Z,101497.94
2023-07-14T01:56:03.316Z,101484.06
2023-07-14T01:58:34.845Z,101489.97
2023-07-14T02:01:04.595Z,101483.56
2023-07-14T02:03:42.014Z,101481.75
2023-07-14T02:06:09.953Z,101482.22
2023-07-14T02:08:37.709Z,101472.94
2023-07-14T02:11:05.296Z,101471.34
2023-07-14T02:13:34.273Z,101468.28
2023-07-14T02:16:02.718Z,101477.25
2023-07-14T02:18:30.316Z,101480.38
2023-07-14T02:20:59.481Z,101474.81
2023-07-14T02:23:28.933Z,101482.66
2023-07-14T02:26:22.542Z,101478.03
2023-07-14T02:28:49.878Z,101477.25
2023-07-14T02:31:41.817Z,101472.25
2023-07-14T02:34:12.649Z,101481.34
2023-07-14T02:36:55.834Z,101464.25
2023-07-14T02:39:23.364Z,101472.06
2023-07-14T02:41:54.734Z,101462.63
2023-07-14T02:44:27.002Z,101462.91
2023-07-14T02:47:11.991Z,101444.22
2023-07-14T02:49:40.167Z,101455.44
2023-07-14T02:52:07.480Z,101452.94
2023-07-14T02:54:34.867Z,101450.81
2023-07-14T02:57:02.009Z,101453.06
2023-07-14T02:59:29.316Z,101457.31
2023-07-14T03:01:56.576Z,101452.72
2023-07-14T03:04:24.786Z,101451.22
2023-07-14T03:06:52.334Z,101447.47
2023-07-14T03:09:20.608Z,101442.84
2023-07-14T03:11:47.999Z,101442.06
2023-07-14T03:14:15.351Z,101434.59
2023-07-14T03:16:42.555Z,101435.53
2023-07-14T03:19:09.791Z,101439.50
2023-07-14T03:21:37.452Z,101437.53
2023-07-14T03:24:04.990Z,101434.31
2023-07-14T03:26:32.370Z,101437.03
2023-07-14T03:28:59.531Z,101437.38
2023-07-14T03:31:26.725Z,101438.50
2023-07-14T03:33:53.958Z,101443.09
2023-07-14T03:36:25.100Z,101444.94
2023-07-14T03:39:26.280Z,101442.09
2023-07-14T03:41:55.031Z,101434.75
2023-07-14T03:44:22.610Z,101428.19
2023-07-14T03:46:50.177Z,101429.63
2023-07-14T03:49:17.982Z,101427.22
2023-07-14T03:51:45.139Z,101427.88
2023-07-14T03:54:12.764Z,101428.31
2023-07-14T03:56:40.015Z,101438.88
2023-07-14T03:59:08.653Z,101433.63
2023-07-14T04:01:36.038Z,101437.00
2023-07-14T04:04:03.296Z,101441.44
2023-07-14T04:06:30.603Z,101440.19
2023-07-14T04:09:00.888Z,101430.97
2023-07-14T04:11:28.706Z,101438.94
2023-07-14T04:13:55.895Z,101442.97
2023-07-14T04:16:25.247Z,101451.09
2023-07-14T04:18:52.959Z,101454.63
2023-07-14T04:21:25.714Z,101450.19
2023-07-14T04:23:53.905Z,101464.03
2023-07-14T04:26:22.163Z,101450.47
2023-07-14T04:28:49.672Z,101461.16
2023-07-14T04:31:18.158Z,101458.31
2023-07-14T04:33:47.012Z,101463.13
2023-07-14T04:36:15.303Z,101459.00
2023-07-14T04:38:43.817Z,101468.41
2023-07-14T04:41:14.317Z,101466.34
2023-07-14T04:43:42.430Z,101461.56
2023-07-14T04:46:10.950Z,101466.56
2023-07-14T04:48:38.217Z,101468.50
2023-07-14T04:51:05.406Z,101472.03
2023-07-14T04:53:32.912Z,101469.47
2023-07-14T04:56:02.062Z,101474.75
2023-07-14T04:58:29.366Z,101485.47
2023-07-14T05:00:56.606Z,101478.91
2023-07-14T05:03:24.980Z,101481.34
2023-07-14T05:05:52.220Z,101491.63
2023-07-14T05:08:19.490Z,101491.47
2023-07-14T05:10:46.806Z,101496.44
2023-07-14T05:13:14.764Z,101498.56
2023-07-14T05:15:46.294Z,101494.22
2023-07-14T05:18:17.139Z,101496.13
2023-07-14T05:20:45.253Z,101508.19
2023-07-14T05:23:12.642Z,101515.56
2023-07-14T05:25:40.404Z,101517.00
2023-07-14T05:28:07.603Z,101514.63
2023-07-14T05:30:35.148Z,101517.97
2023-07-14T05:33:03.051Z,101522.47
2023-07-14T05:35:30.322Z,101526.59
2023-07-14T05:37:57.915Z,101527.44
2023-07-14T05:40:25.220Z,101524.69
2023-07-14T05:42:52.474Z,101523.09
2023-07-14T05:45:20.754Z,101530.44
2023-07-14T05:47:48.393Z,101522.28
2023-07-14T05:50:16.726Z,101528.97
2023-07-14T05:52:45.238Z,101530.28
2023-07-14T05:55:12.831Z,101535.22
2023-07-14T05:57:40.389Z,101536.63
2023-07-14T06:00:14.623Z,101540.91
2023-07-14T06:02:42.730Z,101544.25
2023-07-14T06:05:11.506Z,101546.13
2023-07-14T06:07:39.223Z,101551.22
2023-07-14T06:10:07.825Z,101551.47
2023-07-14T06:12:35.093Z,101568.13
2023-07-14T06:15:02.647Z,101568.25
2023-07-14T06:17:30.652Z,101568.38
2023-07-14T06:19:57.901Z,101567.59
2023-07-14T06:22:26.170Z,101568.13
2023-07-14T06:24:53.349Z,101553.75
2023-07-14T06:27:20.566Z,101579.31
2023-07-14T06:29:47.959Z,101576.84
2023-07-14T06:32:16.752Z,101575.06
2023-07-14T06:34:44.999Z,101577.75
2023-07-14T06:37:12.224Z,101576.56
2023-07-14T06:39:39.563Z,101577.88
2023-07-14T06:42:07.354Z,101573.59
2023-07-14T06:44:34.735Z,101581.88
2023-07-14T06:47:01.911Z,101584.59
2023-07-14T06:49:29.521Z,101587.22
2023-07-14T06:51:57.536Z,101583.50
2023-07-14T06:54:24.767Z,101588.06
2023-07-14T06:56:51.920Z,101601.59
2023-07-14T06:59:19.283Z,101600.16
2023-07-14T07:01:46.707Z,101608.28
2023-07-14T07:04:15.558Z,101610.09
2023-07-14T07:06:42.921Z,101610.34
2023-07-14T07:09:10.393Z,101607.03
2023-07-14T07:11:37.669Z,101613.78
2023-07-14T07:14:04.999Z,101616.09
2023-07-14T07:16:32.391Z,101610.28
2023-07-14T07:18:59.963Z,101613.00
2023-07-14T07:21:27.151Z,101628.13
2023-07-14T07:23:54.545Z,101626.78
2023-07-14T07:26:21.806Z,101621.84
2023-07-14T07:28:49.044Z,101625.34
2023-07-14T07:31:16.802Z,101621.50
2023-07-14T07:33:44.229Z,101620.66
2023-07-14T07:36:17.733Z,101619.97
2023-07-14T07:38:46.610Z,101625.53
2023-07-14T07:41:19.886Z,101626.09
2023-07-14T07:43:47.862Z,101623.69
2023-07-14T07:46:15.928Z,101627.97
2023-07-14T07:48:45.453Z,101624.91
2023-07-14T07:51:13.746Z,101626.78
2023-07-14T07:53:41.561Z,101624.34
2023-07-14T07:56:11.259Z,101634.50
2023-07-14T07:58:38.802Z,101638.34
2023-07-14T08:01:07.372Z,101640.88
2023-07-14T08:03:37.645Z,101649.81
2023-07-14T08:06:06.941Z,101639.03
2023-07-14T08:08:34.443Z,101638.41
2023-07-14T08:11:02.827Z,101628.84
2023-07-14T08:13:31.152Z,101632.59
2023-07-14T08:15:59.736Z,101639.91
2023-07-14T08:18:28.045Z,101632.00
2023-07-14T08:20:55.300Z,101631.47
2023-07-14T08:23:25.533Z,101641.06
2023-07-14T08:26:00.750Z,101633.00
2023-07-14T08:28:28.864Z,101641.59
2023-07-14T08:31:00.370Z,101629.72
2023-07-14T08:33:28.548Z,101632.75
2023-07-14T08:36:01.472Z,101627.19
2023-07-14T08:38:31.926Z,101636.09
2023-07-14T08:41:34.466Z,101633.78
2023-07-14T08:44:06.807Z,101638.56
2023-07-14T08:46:50.445Z,101630.50
2023-07-14T08:49:29.224Z,101627.56
2023-07-14T08:52:03.057Z,101615.03
2023-07-14T08:54:50.618Z,101611.44
2023-07-14T08:57:24.087Z,101623.16
2023-07-14T08:59:58.333Z,101626.69
2023-07-14T09:02:56.782Z,101625.88
2023-07-14T09:05:29.280Z,101623.13
2023-07-14T09:07:57.111Z,101610.97
2023-07-14T09:10:39.101Z,101608.09
2023-07-14T09:13:16.249Z,101617.91
2023-07-14T09:15:44.088Z,101613.19
2023-07-14T09:19:03.368Z,101612.03
2023-07-14T09:21:40.463Z,101605.47
2023-07-14T09:24:42.386Z,101597.56
2023-07-14T09:27:15.136Z,101598.72
2023-07-14T09:29:45.902Z,101596.56
2023-07-14T09:32:19.318Z,101597.59
2023-07-14T09:35:01.717Z,101590.25
2023-07-14T09:37:43.121Z,101587.97
2023-07-14T09:40:21.167Z,101582.84
2023-07-14T09:42:52.173Z,101591.53
2023-07-14T09:45:32.376Z,101596.59
2023-07-14T09:48:12.172Z,101592.19
2023-07-14T09:50:47.799Z,101596.50
2023-07-14T09:53:15.171Z,101600.47
2023-07-14T09:56:00.552Z,101596.88
2023-07-14T09:58:30.963Z,101594.53
2023-07-14T10:01:03.151Z,101595.13
2023-07-14T10:04:05.773Z,101595.34
2023-07-14T10:06:33.068Z,101588.47
2023-07-14T10:09:23.911Z,101583.50
2023-07-14T10:11:53.555Z,101583.50
2023-07-14T10:14:38.326Z,101583.50
2023-07-14T10:17:06.407Z,101585.50
2023-07-14T10:19:40.457Z,101580.81
2023-07-14T10:22:21.303Z,101573.09
2023-07-14T10:24:57.141Z,101574.09
2023-07-14T10:27:32.308Z,101570.38
2023-07-14T10:29:59.619Z,101573.56
2023-07-14T10:32:32.450Z,101558.56
2023-07-14T10:35:14.859Z,101553.03
2023-07-14T10:37:51.603Z,101550.66
2023-07-14T10:40:23.016Z,101546.69
2023-07-14T10:43:15.165Z,101549.09
2023-07-14T10:45:46.716Z,101549.06
2023-07-14T10:48:22.683Z,101542.34
2023-07-14T10:51:24.701Z,101536.88
2023-07-14T10:54:10.431Z,101538.03
2023-07-14T10:56:43.328Z,101523.66
2023-07-14T10:59:41.001Z,101517.63
2023-07-14T11:02:11.297Z,101518.88
2023-07-14T11:04:52.324Z,101512.97
2023-07-14T11:07:30.091Z,101511.41
2023-07-14T11:09:58.903Z,101511.03
2023-07-14T11:12:38.025Z,101506.59
2023-07-14T11:15:14.180Z,101498.28
2023-07-14T11:17:54.537Z,101493.19
2023-07-14T11:20:32.507Z,101496.06
2023-07-14T11:23:28.467Z,101486.06
2023-07-14T11:26:06.516Z,101494.44
2023-07-14T11:29:01.640Z,101495.16
2023-07-14T11:31:32.151Z,101492.41
2023-07-14T11:34:14.346Z,101499.63
2023-07-14T11:36:53.773Z,101505.16
2023-07-14T11:39:24.928Z,101500.47
2023-07-14T11:41:53.317Z,101489.13
2023-07-14T11:44:24.798Z,101484.13
2023-07-14T11:46:52.939Z,101496.44
2023-07-14T11:49:27.618Z,101476.78
2023-07-14T11:51:58.765Z,101480.91
2023-07-14T11:54:41.606Z,101476.63
2023-07-14T11:57:18.002Z,101471.31
2023-07-14T12:00:18.528Z,101470.78
2023-07-14T12:02:59.185Z,101477.97
2023-07-14T12:05:33.366Z,101457.78
2023-07-14T12:08:03.478Z,101471.06
2023-07-14T12:10:39.676Z,101463.53
2023-07-14T12:13:39.658Z,101463.28
2023-07-14T12:16:16.572Z,101456.28
2023-07-14T12:18:59.009Z,101466.25
2023-07-14T12:21:31.091Z,101460.53
2023-07-14T12:24:11.011Z,101448.88
2023-07-14T12:27:00.548Z,101438.31
2023-07-14T12:29:29.872Z,101447.75
2023-07-14T12:31:58.157Z,101437.19
2023-07-14T12:34:31.521Z,101438.72
2023-07-14T12:37:01.695Z,101437.25
2023-07-14T12:39:29.589Z,101427.91
2023-07-14T12:41:57.561Z,101433.69
2023-07-14T12:44:36.673Z,101421.34
2023-07-14T12:47:04.078Z,101420.66
2023-07-14T12:49:44.123Z,101425.34
2023-07-14T12:52:25.462Z,101421.63
2023-07-14T12:54:53.671Z,101419.78
2023-07-14T12:57:22.243Z,101417.19
2023-07-14T12:59:51.254Z,101405.97
2023-07-14T13:02:19.320Z,101398.78
2023-07-14T13:04:47.304Z,101406.69
2023-07-14T13:07:21.521Z,101397.94
2023-07-14T13:10:26.481Z,101382.97
2023-07-14T13:12:57.758Z,101388.41
2023-07-14T13:15:32.036Z,101377.56
2023-07-14T13:18:24.769Z,101373.03
2023-07-14T13:20:56.169Z,101383.28
2023-07-14T13:23:28.974Z,101374.56
2023-07-14T13:26:05.049Z,101387.56
2023-07-14T13:28:41.407Z,101381.47
2023-07-14T13:31:18.903Z,101378.81
2023-07-14T13:33:48.690Z,101373.53
2023-07-14T13:36:25.383Z,101377.53
2023-07-14T13:38:52.993Z,101366.28
2023-07-14T13:41:24.478Z,101371.03
2023-07-14T13:43:52.376Z,101358.25
2023-07-14T13:46:26.970Z,101352.03
2023-07-14T13:51:26.887Z,101333.53
2023-07-14T13:53:54.283Z,101322.47
2023-07-14T13:56:27.628Z,101330.34
2023-07-14T13:58:58.279Z,101332.81
2023-07-14T14:01:28.436Z,101339.13
2023-07-14T14:03:57.122Z,101332.28
2023-07-14T14:06:25.226Z,101332.94
2023-07-14T14:08:55.977Z,101331.63
2023-07-14T14:11:23.226Z,101332.59
2023-07-14T14:13:50.660Z,101328.75
2023-07-14T14:16:26.307Z,101314.09
2023-07-14T14:18:53.628Z,101323.28
2023-07-14T14:21:20.889Z,101299.28
2023-07-14T14:23:48.157Z,101304.53
2023-07-14T14:26:15.811Z,101306.66
2023-07-14T14:28:43.355Z,101288.88
2023-07-14T14:31:13.104Z,101288.88
2023-07-14T14:33:40.511Z,101288.88
2023-07-14T14:36:13.039Z,101288.88
2023-07-14T14:38:46.514Z,101267.00
2023-07-14T14:41:32.809Z,101270.19
2023-07-14T14:44:00.178Z,101264.09
2023-07-14T14:46:27.734Z,101259.81
2023-07-14T14:48:55.416Z,101252.97
2023-07-14T14:51:23.256Z,101250.75
2023-07-14T14:53:50.818Z,101251.56
2023-07-14T14:56:25.746Z,101255.75
2023-07-14T14:59:00.562Z,101249.44
2023-07-14T15:01:39.695Z,101242.03
2023-07-14T15:04:14.091Z,101228.44
2023-07-14T15:06:41.935Z,101223.88
2023-07-14T15:09:09.768Z,101243.34
2023-07-14T15:11:37.593Z,101235.09
2023-07-14T15:14:09.400Z,101211.94
2023-07-14T15:16:37.875Z,101226.31
2023-07-14T15:19:05.245Z,101220.97
2023-07-14T15:21:32.513Z,101217.75
2023-07-14T15:24:00.578Z,101223.75
2023-07-14T15:26:37.792Z,101219.19
2023-07-14T15:29:06.661Z,101221.25
2023-07-14T15:31:34.682Z,101222.72
2023-07-14T15:34:02.873Z,101207.72
2023-07-14T15:36:30.254Z,101201.72
2023-07-14T15:38:57.533Z,101197.88
2023-07-14T15:41:24.735Z,101210.31
2023-07-14T15:43:52.788Z,101190.72
2023-07-14T15:46:22.587Z,101208.41
2023-07-14T15:48:54.144Z,101199.47
2023-07-14T15:51:30.018Z,101204.31
2023-07-14T15:54:08.426Z,101189.13
2023-07-14T15:56:36.999Z,101193.59
2023-07-14T15:59:04.427Z,101179.19
2023-07-14T16:01:32.793Z,101178.56
2023-07-14T16:04:02.282Z,101173.13
2023-07-14T16:06:31.494Z,101154.31
2023-07-14T16:08:59.215Z,101157.06
2023-07-14T16:11:33.947Z,101149.47
2023-07-14T16:14:04.180Z,101149.34
2023-07-14T16:16:32.042Z,101145.88
2023-07-14T16:18:59.460Z,101148.47
2023-07-14T16:21:32.387Z,101149.41
2023-07-14T16:24:03.714Z,101139.47
2023-07-14T16:26:31.525Z,101132.59
2023-07-14T16:28:58.766Z,101129.91
2023-07-14T16:31:26.592Z,101125.19
2023-07-14T16:33:54.001Z,101125.38
2023-07-14T16:36:28.121Z,101123.69
2023-07-14T16:39:00.396Z,101128.56
2023-07-14T16:41:27.834Z,101132.19
2023-07-14T16:43:56.643Z,101127.13
2023-07-14T16:46:32.102Z,101129.38
2023-07-14T16:48:59.853Z,101126.59
2023-07-14T16:51:29.036Z,101128.41
2023-07-14T16:53:57.445Z,101128.31
2023-07-14T16:56:24.705Z,101129.66
2023-07-14T16:58:51.883Z,101132.69
2023-07-14T17:01:21.595Z,101134.78
2023-07-14T17:03:49.091Z,101132.72
2023-07-14T17:06:22.269Z,101126.94
2023-07-14T17:08:53.624Z,101127.25
2023-07-14T17:11:22.480Z,101127.63
2023-07-14T17:13:49.787Z,101129.19
2023-07-14T17:16:17.358Z,101128.91
2023-07-14T17:18:46.606Z,101117.22
2023-07-14T17:21:14.272Z,101117.13
2023-07-14T17:23:41.812Z,101115.06
2023-07-14T17:26:11.781Z,101108.00
2023-07-14T17:28:39.203Z,101107.84
2023-07-14T17:31:06.465Z,101099.25
2023-07-14T17:33:33.625Z,101098.16
2023-07-14T17:36:06.535Z,101100.22
2023-07-14T17:38:36.486Z,101089.19
2023-07-14T17:41:03.908Z,101080.16
2023-07-14T17:43:32.958Z,101081.66
2023-07-14T17:46:00.350Z,101069.63
2023-07-14T17:48:27.602Z,101078.78
2023-07-14T17:50:55.602Z,101082.28
2023-07-14T17:53:25.122Z,101072.38
2023-07-14T17:55:53.073Z,101081.13
2023-07-14T17:58:25.349Z,101078.13
2023-07-14T18:00:54.414Z,101070.81
2023-07-14T18:03:32.251Z,101071.84
2023-07-14T18:06:09.402Z,101066.91
2023-07-14T18:08:36.771Z,101055.88
2023-07-14T18:11:15.532Z,101064.97
2023-07-14T18:13:44.329Z,101058.53
2023-07-14T18:16:14.701Z,101064.34
2023-07-14T18:18:44.686Z,101063.78
2023-07-14T18:21:13.199Z,101069.78
2023-07-14T18:23:41.573Z,101064.94
2023-07-14T18:26:13.502Z,101060.19
2023-07-14T18:28:40.853Z,101048.09
2023-07-14T18:31:14.352Z,101046.19
2023-07-14T18:33:44.782Z,101058.34
2023-07-14T18:36:12.118Z,101056.00
2023-07-14T18:38:39.382Z,101058.06
2023-07-14T18:41:16.850Z,101055.84
2023-07-14T18:43:44.206Z,101049.97
2023-07-14T18:46:13.521Z,101054.81
2023-07-14T18:48:41.209Z,101059.09
2023-07-14T18:51:24.835Z,101050.19
2023-07-14T18:53:57.844Z,101054.25
2023-07-14T18:56:26.896Z,101051.91
2023-07-14T18:58:56.673Z,101055.19
2023-07-14T19:01:24.537Z,101064.38
2023-07-14T19:03:55.962Z,101059.72
2023-07-14T19:06:26.338Z,101059.47
2023-07-14T19:08:55.154Z,101058.69
2023-07-14T19:11:25.498Z,101049.28
2023-07-14T19:13:54.142Z,101056.50
2023-07-14T19:16:26.652Z,101048.59
2023-07-14T19:18:54.726Z,101057.31
2023-07-14T19:21:25.448Z,101048.59
2023-07-14T19:23:53.128Z,101062.91
2023-07-14T19:26:20.344Z,101054.25
2023-07-14T19:28:47.895Z,101047.97
2023-07-14T19:31:22.014Z,101049.16
2023-07-14T19:33:49.792Z,101051.59
2023-07-14T19:36:18.494Z,101053.63
2023-07-14T19:38:46.633Z,101054.03
2023-07-14T19:41:18.502Z,101057.97
2023-07-14T19:43:49.801Z,101054.09
2023-07-14T19:46:19.834Z,101056.50
2023-07-14T19:48:47.504Z,101056.91
2023-07-14T19:51:21.781Z,101063.59
2023-07-14T19:53:50.677Z,101057.72
2023-07-14T19:56:25.070Z,101058.56
2023-07-14T19:58:54.754Z,101060.94
2023-07-14T20:01:22.421Z,101055.41
2023-07-14T20:03:50.584Z,101052.25
2023-07-14T20:06:24.833Z,101058.59
2023-07-14T20:08:58.394Z,101052.28
2023-07-14T20:11:27.476Z,101044.41
2023-07-14T20:13:55.331Z,101048.34
2023-07-14T20:16:23.368Z,101037.72
2023-07-14T20:18:51.052Z,101039.69
2023-07-14T20:21:24.839Z,101051.09
2023-07-14T20:23:52.370Z,101046.78
2023-07-14T20:26:19.790Z,101037.72
2023-07-14T20:28:49.093Z,101038.47
2023-07-14T20:31:19.916Z,101040.44
2023-07-14T20:33:49.057Z,101049.91
2023-07-14T20:36:19.838Z,101041.22
2023-07-14T20:38:49.133Z,101042.81
2023-07-14T20:41:24.083Z,101040.03
2023-07-14T20:43:52.686Z,101045.94
2023-07-14T20:46:27.338Z,101036.47
2023-07-14T20:49:10.763Z,101046.69
2023-07-14T20:51:43.717Z,101035.63
2023-07-14T20:54:14.433Z,101036.81
2023-07-14T20:56:41.909Z,101033.25
2023-07-14T20:59:09.277Z,101036.84
2023-07-14T21:01:37.913Z,101036.03
2023-07-14T21:04:20.940Z,101036.03
2023-07-14T21:06:48.254Z,101030.94
2023-07-14T21:09:15.399Z,101039.56
2023-07-14T21:11:43.989Z,101034.03
2023-07-14T21:14:11.859Z,101037.56
2023-07-14T21:16:42.084Z,101029.34
2023-07-14T21:19:10.307Z,101032.47
2023-07-14T21:21:38.410Z,101030.09
2023-07-14T21:24:20.140Z,101026.91
2023-07-14T21:26:47.733Z,101023.00
2023-07-14T21:29:19.077Z,101021.41
2023-07-14T21:31:46.963Z,101019.78
2023-07-14T21:34:23.101Z,101015.50
2023-07-14T21:36:50.759Z,101015.78
2023-07-14T21:39:24.415Z,101008.34
2023-07-14T21:41:53.260Z,101003.22
2023-07-14T21:44:21.066Z,101010.34
2023-07-14T21:46:48.530Z,101006.00
2023-07-14T21:49:18.996Z,101002.50
2023-07-14T21:51:47.058Z,101004.06
2023-07-14T21:54:16.850Z,101006.00
2023-07-14T21:56:46.826Z,100997.72
2023-07-14T21:59:17.871Z,100999.25
2023-07-14T22:01:49.045Z,100999.94
2023-07-14T22:04:24.424Z,100996.03
2023-07-14T22:06:52.770Z,101000.34
2023-07-14T22:09:19.968Z,100998.34
2023-07-14T22:11:47.804Z,100994.41
2023-07-14T22:14:16.903Z,101003.88
2023-07-14T22:16:45.040Z,101001.88
2023-07-14T22:19:14.451Z,101007.00
